Arcola, Indiana
Current Conditions -  °F | °C
As of 2:54 PM on Friday 19 Dec 2014 (Local Time) from KFWA Reporting Station
Broken Clouds Broken Clouds  
Wind Chill: 32°   Ceiling: 3300
Heat Index: 32°   Visibility: 10mi
Dew Point: 21°   Wind: 0mph
Humidity: 64%   Direction: NA
Pressure: 30.25"   Gusts: NA
Location:  41.1°N, 85.29°W
Report Text: KFWA 191954Z 00000KT 10SM BKN033 00/M06 A3025 RMK AO2 SLP251 T00001061
Loading
Personal Weather Stations






























Interactive Weather Map New forecast layout! Learn more

10-Day Weather Forecast

Advertisements
Track Severe Weather on mobile